sensor_id;sensor_type;location;lat;lon;timestamp;temperature;humidity
7399;DHT22;3740;50.700;7.184;2023-12-07T00:02:05;4.20;99.90
7399;DHT22;3740;50.700;7.184;2023-12-07T00:04:30;4.20;99.90
7399;DHT22;3740;50.700;7.184;2023-12-07T00:06:56;4.20;99.90
7399;DHT22;3740;50.700;7.184;2023-12-07T00:09:21;4.20;99.90
7399;DHT22;3740;50.700;7.184;2023-12-07T00:11:47;4.20;99.90
7399;DHT22;3740;50.700;7.184;2023-12-07T00:14:12;4.20;99.90
7399;DHT22;3740;50.700;7.184;2023-12-07T00:16:38;4.20;99.90
7399;DHT22;3740;50.700;7.184;2023-12-07T00:19:03;4.20;99.90
7399;DHT22;3740;50.700;7.184;2023-12-07T00:21:29;4.20;99.90
7399;DHT22;3740;50.700;7.184;2023-12-07T00:23:54;4.30;99.90
7399;DHT22;3740;50.700;7.184;2023-12-07T00:26:20;4.30;99.90
7399;DHT22;3740;50.700;7.184;2023-12-07T00:28:46;4.20;99.90
7399;DHT22;3740;50.700;7.184;2023-12-07T00:31:12;4.30;99.90
7399;DHT22;3740;50.700;7.184;2023-12-07T00:33:38;4.30;99.90
7399;DHT22;3740;50.700;7.184;2023-12-07T00:36:04;4.30;99.90
7399;DHT22;3740;50.700;7.184;2023-12-07T00:38:29;4.40;99.90
7399;DHT22;3740;50.700;7.184;2023-12-07T00:40:57;4.40;99.90
7399;DHT22;3740;50.700;7.184;2023-12-07T00:43:23;4.30;99.90
7399;DHT22;3740;50.700;7.184;2023-12-07T00:45:48;4.40;99.90
7399;DHT22;3740;50.700;7.184;2023-12-07T00:48:14;4.40;99.90
7399;DHT22;3740;50.700;7.184;2023-12-07T00:50:40;4.40;99.90
7399;DHT22;3740;50.700;7.184;2023-12-07T00:53:05;4.50;99.90
7399;DHT22;3740;50.700;7.184;2023-12-07T00:55:31;4.50;99.90
7399;DHT22;3740;50.700;7.184;2023-12-07T00:57:56;4.60;99.90
7399;DHT22;3740;50.700;7.184;2023-12-07T01:00:22;4.60;99.90
7399;DHT22;3740;50.700;7.184;2023-12-07T01:02:48;4.70;99.90
7399;DHT22;3740;50.700;7.184;2023-12-07T01:05:13;4.70;99.90
7399;DHT22;3740;50.700;7.184;2023-12-07T01:07:39;4.80;99.90
7399;DHT22;3740;50.700;7.184;2023-12-07T01:10:05;4.80;99.90
7399;DHT22;3740;50.700;7.184;2023-12-07T01:12:31;4.80;99.90
7399;DHT22;3740;50.700;7.184;2023-12-07T01:14:56;4.80;99.90
7399;DHT22;3740;50.700;7.184;2023-12-07T01:17:22;4.80;99.90
7399;DHT22;3740;50.700;7.184;2023-12-07T01:19:47;4.90;99.90
7399;DHT22;3740;50.700;7.184;2023-12-07T01:22:13;4.80;99.90
7399;DHT22;3740;50.700;7.184;2023-12-07T01:24:38;4.80;99.90
7399;DHT22;3740;50.700;7.184;2023-12-07T01:27:04;4.90;99.90
7399;DHT22;3740;50.700;7.184;2023-12-07T01:29:30;4.90;99.90
7399;DHT22;3740;50.700;7.184;2023-12-07T01:31:55;4.90;99.90
7399;DHT22;3740;50.700;7.184;2023-12-07T01:34:21;4.90;99.90
7399;DHT22;3740;50.700;7.184;2023-12-07T01:36:46;4.90;99.90
7399;DHT22;3740;50.700;7.184;2023-12-07T01:39:12;4.90;99.90
7399;DHT22;3740;50.700;7.184;2023-12-07T01:41:39;5.00;99.90
7399;DHT22;3740;50.700;7.184;2023-12-07T01:44:04;5.00;99.90
7399;DHT22;3740;50.700;7.184;2023-12-07T01:46:30;5.10;99.90
7399;DHT22;3740;50.700;7.184;2023-12-07T01:48:56;5.00;99.90
7399;DHT22;3740;50.700;7.184;2023-12-07T01:51:22;5.00;99.90
7399;DHT22;3740;50.700;7.184;2023-12-07T01:53:48;5.00;99.90
7399;DHT22;3740;50.700;7.184;2023-12-07T01:56:14;5.00;99.90
7399;DHT22;3740;50.700;7.184;2023-12-07T01:58:41;5.00;99.90
7399;DHT22;3740;50.700;7.184;2023-12-07T02:01:07;5.10;99.90
7399;DHT22;3740;50.700;7.184;2023-12-07T02:03:32;5.00;99.90
7399;DHT22;3740;50.700;7.184;2023-12-07T02:05:58;5.00;99.90
7399;DHT22;3740;50.700;7.184;2023-12-07T02:08:25;5.00;99.90
7399;DHT22;3740;50.700;7.184;2023-12-07T02:10:51;5.10;99.90
7399;DHT22;3740;50.700;7.184;2023-12-07T02:13:18;5.10;99.90
7399;DHT22;3740;50.700;7.184;2023-12-07T02:15:44;5.20;99.90
7399;DHT22;3740;50.700;7.184;2023-12-07T02:18:25;5.10;99.90
7399;DHT22;3740;50.700;7.184;2023-12-07T02:21:25;5.20;99.90
7399;DHT22;3740;50.700;7.184;2023-12-07T02:23:52;5.20;99.90
7399;DHT22;3740;50.700;7.184;2023-12-07T02:26:19;5.20;99.90
7399;DHT22;3740;50.700;7.184;2023-12-07T02:28:45;5.20;99.90
7399;DHT22;3740;50.700;7.184;2023-12-07T02:31:11;5.20;99.90
7399;DHT22;3740;50.700;7.184;2023-12-07T02:33:36;5.20;99.90
7399;DHT22;3740;50.700;7.184;2023-12-07T02:36:02;5.20;99.90
7399;DHT22;3740;50.700;7.184;2023-12-07T02:38:28;5.20;99.90
7399;DHT22;3740;50.700;7.184;2023-12-07T02:40:54;5.20;99.90
7399;DHT22;3740;50.700;7.184;2023-12-07T02:43:21;5.20;99.90
7399;DHT22;3740;50.700;7.184;2023-12-07T02:45:48;5.10;99.90
7399;DHT22;3740;50.700;7.184;2023-12-07T02:48:13;5.10;99.90
7399;DHT22;3740;50.700;7.184;2023-12-07T02:50:39;5.00;99.90
7399;DHT22;3740;50.700;7.184;2023-12-07T02:53:05;5.00;99.90
7399;DHT22;3740;50.700;7.184;2023-12-07T02:55:30;5.00;99.90
7399;DHT22;3740;50.700;7.184;2023-12-07T02:57:56;5.10;99.90
7399;DHT22;3740;50.700;7.184;2023-12-07T03:00:21;5.00;99.90
7399;DHT22;3740;50.700;7.184;2023-12-07T03:02:47;5.00;99.90
7399;DHT22;3740;50.700;7.184;2023-12-07T03:05:13;5.10;99.90
7399;DHT22;3740;50.700;7.184;2023-12-07T03:07:39;5.10;99.90
7399;DHT22;3740;50.700;7.184;2023-12-07T03:10:05;5.10;99.90
7399;DHT22;3740;50.700;7.184;2023-12-07T03:12:30;5.10;99.90
7399;DHT22;3740;50.700;7.184;2023-12-07T03:14:56;5.20;99.90
7399;DHT22;3740;50.700;7.184;2023-12-07T03:17:22;5.10;99.90
7399;DHT22;3740;50.700;7.184;2023-12-07T03:19:47;5.00;99.90
7399;DHT22;3740;50.700;7.184;2023-12-07T03:22:13;4.90;99.90
7399;DHT22;3740;50.700;7.184;2023-12-07T03:24:39;4.90;99.90
7399;DHT22;3740;50.700;7.184;2023-12-07T03:27:05;4.90;99.90
7399;DHT22;3740;50.700;7.184;2023-12-07T03:29:31;4.90;99.90
7399;DHT22;3740;50.700;7.184;2023-12-07T03:31:57;4.90;99.90
7399;DHT22;3740;50.700;7.184;2023-12-07T03:34:23;5.00;99.90
7399;DHT22;3740;50.700;7.184;2023-12-07T03:36:49;5.00;99.90
7399;DHT22;3740;50.700;7.184;2023-12-07T03:39:16;5.10;99.90
7399;DHT22;3740;50.700;7.184;2023-12-07T03:41:43;5.00;99.90
7399;DHT22;3740;50.700;7.184;2023-12-07T03:44:09;5.10;99.90
7399;DHT22;3740;50.700;7.184;2023-12-07T03:46:34;5.10;99.90
7399;DHT22;3740;50.700;7.184;2023-12-07T03:49:00;5.10;99.90
7399;DHT22;3740;50.700;7.184;2023-12-07T03:51:27;5.00;99.90
7399;DHT22;3740;50.700;7.184;2023-12-07T03:53:53;5.00;99.90
7399;DHT22;3740;50.700;7.184;2023-12-07T03:56:30;5.10;99.90
7399;DHT22;3740;50.700;7.184;2023-12-07T03:58:56;5.10;99.90
7399;DHT22;3740;50.700;7.184;2023-12-07T04:01:27;5.10;99.90
7399;DHT22;3740;50.700;7.184;2023-12-07T04:03:54;5.10;99.90
7399;DHT22;3740;50.700;7.184;2023-12-07T04:06:23;5.10;99.90
7399;DHT22;3740;50.700;7.184;2023-12-07T04:08:50;5.10;99.90
7399;DHT22;3740;50.700;7.184;2023-12-07T04:11:16;5.10;99.90
7399;DHT22;3740;50.700;7.184;2023-12-07T04:13:42;5.10;99.90
7399;DHT22;3740;50.700;7.184;2023-12-07T04:16:08;5.10;99.90
7399;DHT22;3740;50.700;7.184;2023-12-07T04:18:34;5.10;99.90
7399;DHT22;3740;50.700;7.184;2023-12-07T04:21:00;5.10;99.90
7399;DHT22;3740;50.700;7.184;2023-12-07T04:23:25;5.00;99.90
7399;DHT22;3740;50.700;7.184;2023-12-07T04:25:51;5.10;99.90
7399;DHT22;3740;50.700;7.184;2023-12-07T04:28:17;5.10;99.90
7399;DHT22;3740;50.700;7.184;2023-12-07T04:30:42;5.00;99.90
7399;DHT22;3740;50.700;7.184;2023-12-07T04:33:08;5.00;99.90
7399;DHT22;3740;50.700;7.184;2023-12-07T04:35:34;5.00;99.90
7399;DHT22;3740;50.700;7.184;2023-12-07T04:38:00;5.00;99.90
7399;DHT22;3740;50.700;7.184;2023-12-07T04:40:26;5.00;99.90
7399;DHT22;3740;50.700;7.184;2023-12-07T04:42:52;4.90;99.90
7399;DHT22;3740;50.700;7.184;2023-12-07T04:45:17;4.90;99.90
7399;DHT22;3740;50.700;7.184;2023-12-07T04:47:43;4.70;99.90
7399;DHT22;3740;50.700;7.184;2023-12-07T04:50:09;4.70;99.90
7399;DHT22;3740;50.700;7.184;2023-12-07T04:52:35;4.70;99.90
7399;DHT22;3740;50.700;7.184;2023-12-07T04:55:01;4.60;99.90
7399;DHT22;3740;50.700;7.184;2023-12-07T04:57:26;4.50;99.90
7399;DHT22;3740;50.700;7.184;2023-12-07T04:59:52;4.40;99.90
7399;DHT22;3740;50.700;7.184;2023-12-07T05:02:18;4.40;99.90
7399;DHT22;3740;50.700;7.184;2023-12-07T05:04:44;4.40;99.90
7399;DHT22;3740;50.700;7.184;2023-12-07T05:07:11;4.30;99.90
7399;DHT22;3740;50.700;7.184;2023-12-07T05:09:36;4.30;99.90
7399;DHT22;3740;50.700;7.184;2023-12-07T05:12:02;4.20;99.90
7399;DHT22;3740;50.700;7.184;2023-12-07T05:14:27;4.20;99.90
7399;DHT22;3740;50.700;7.184;2023-12-07T05:16:53;4.20;99.90
7399;DHT22;3740;50.700;7.184;2023-12-07T05:19:21;4.10;99.90
7399;DHT22;3740;50.700;7.184;2023-12-07T05:21:47;4.10;99.90
7399;DHT22;3740;50.700;7.184;2023-12-07T05:24:13;4.10;99.90
7399;DHT22;3740;50.700;7.184;2023-12-07T05:26:41;4.10;99.90
7399;DHT22;3740;50.700;7.184;2023-12-07T05:29:07;4.10;99.90
7399;DHT22;3740;50.700;7.184;2023-12-07T05:31:32;4.10;99.90
7399;DHT22;3740;50.700;7.184;2023-12-07T05:33:58;4.00;99.90
7399;DHT22;3740;50.700;7.184;2023-12-07T05:36:23;3.90;99.90
7399;DHT22;3740;50.700;7.184;2023-12-07T05:38:49;3.90;99.90
7399;DHT22;3740;50.700;7.184;2023-12-07T05:41:14;3.80;99.90
7399;DHT22;3740;50.700;7.184;2023-12-07T05:43:41;3.80;99.90
7399;DHT22;3740;50.700;7.184;2023-12-07T05:46:07;3.80;99.90
7399;DHT22;3740;50.700;7.184;2023-12-07T05:48:33;3.70;99.90
7399;DHT22;3740;50.700;7.184;2023-12-07T05:50:58;3.70;99.90
7399;DHT22;3740;50.700;7.184;2023-12-07T05:53:24;3.70;99.90
7399;DHT22;3740;50.700;7.184;2023-12-07T05:55:50;3.70;99.90
7399;DHT22;3740;50.700;7.184;2023-12-07T05:58:16;3.70;99.90
7399;DHT22;3740;50.700;7.184;2023-12-07T06:00:43;3.60;99.90
7399;DHT22;3740;50.700;7.184;2023-12-07T06:03:09;3.60;99.90
7399;DHT22;3740;50.700;7.184;2023-12-07T06:05:37;3.60;99.90
7399;DHT22;3740;50.700;7.184;2023-12-07T06:08:03;3.60;99.90
7399;DHT22;3740;50.700;7.184;2023-12-07T06:10:29;3.60;99.90
7399;DHT22;3740;50.700;7.184;2023-12-07T06:12:55;3.60;99.90
7399;DHT22;3740;50.700;7.184;2023-12-07T06:15:22;3.50;99.90
7399;DHT22;3740;50.700;7.184;2023-12-07T06:17:48;3.60;99.90
7399;DHT22;3740;50.700;7.184;2023-12-07T06:20:13;3.50;99.90
7399;DHT22;3740;50.700;7.184;2023-12-07T06:22:39;3.50;99.90
7399;DHT22;3740;50.700;7.184;2023-12-07T06:25:05;3.50;99.90
7399;DHT22;3740;50.700;7.184;2023-12-07T06:27:30;3.50;99.90
7399;DHT22;3740;50.700;7.184;2023-12-07T06:29:56;3.50;99.90
7399;DHT22;3740;50.700;7.184;2023-12-07T06:32:22;3.50;99.90
7399;DHT22;3740;50.700;7.184;2023-12-07T06:34:47;3.50;99.90
7399;DHT22;3740;50.700;7.184;2023-12-07T06:37:13;3.50;99.90
7399;DHT22;3740;50.700;7.184;2023-12-07T06:39:38;3.50;99.90
7399;DHT22;3740;50.700;7.184;2023-12-07T06:42:04;3.40;99.90
7399;DHT22;3740;50.700;7.184;2023-12-07T06:44:30;3.40;99.90
7399;DHT22;3740;50.700;7.184;2023-12-07T06:46:55;3.40;99.90
7399;DHT22;3740;50.700;7.184;2023-12-07T06:49:21;3.40;99.90
7399;DHT22;3740;50.700;7.184;2023-12-07T06:51:46;3.40;99.90
7399;DHT22;3740;50.700;7.184;2023-12-07T06:54:12;3.30;99.90
7399;DHT22;3740;50.700;7.184;2023-12-07T06:56:39;3.30;99.90
7399;DHT22;3740;50.700;7.184;2023-12-07T06:59:04;3.30;99.90
7399;DHT22;3740;50.700;7.184;2023-12-07T07:01:30;3.30;99.90
7399;DHT22;3740;50.700;7.184;2023-12-07T07:03:55;3.30;99.90
7399;DHT22;3740;50.700;7.184;2023-12-07T07:06:22;3.30;99.90
7399;DHT22;3740;50.700;7.184;2023-12-07T07:08:47;3.30;99.90
7399;DHT22;3740;50.700;7.184;2023-12-07T07:11:14;3.30;99.90
7399;DHT22;3740;50.700;7.184;2023-12-07T07:13:40;3.30;99.90
7399;DHT22;3740;50.700;7.184;2023-12-07T07:16:07;3.20;99.90
7399;DHT22;3740;50.700;7.184;2023-12-07T07:18:33;3.20;99.90
7399;DHT22;3740;50.700;7.184;2023-12-07T07:20:58;3.20;99.90
7399;DHT22;3740;50.700;7.184;2023-12-07T07:23:24;3.20;99.90
7399;DHT22;3740;50.700;7.184;2023-12-07T07:25:50;3.20;99.90
7399;DHT22;3740;50.700;7.184;2023-12-07T07:28:15;3.20;99.90
7399;DHT22;3740;50.700;7.184;2023-12-07T07:30:41;3.20;99.90
7399;DHT22;3740;50.700;7.184;2023-12-07T07:33:06;3.20;99.90
7399;DHT22;3740;50.700;7.184;2023-12-07T07:35:32;3.10;99.90
7399;DHT22;3740;50.700;7.184;2023-12-07T07:37:57;3.10;99.90
7399;DHT22;3740;50.700;7.184;2023-12-07T07:40:23;3.10;99.90
7399;DHT22;3740;50.700;7.184;2023-12-07T07:42:50;3.10;99.90
7399;DHT22;3740;50.700;7.184;2023-12-07T07:45:15;3.00;99.90
7399;DHT22;3740;50.700;7.184;2023-12-07T07:47:41;3.00;99.90
7399;DHT22;3740;50.700;7.184;2023-12-07T07:50:07;3.00;99.90
7399;DHT22;3740;50.700;7.184;2023-12-07T07:52:33;3.00;99.90
7399;DHT22;3740;50.700;7.184;2023-12-07T07:55:00;3.00;99.90
7399;DHT22;3740;50.700;7.184;2023-12-07T07:57:28;3.00;99.90
7399;DHT22;3740;50.700;7.184;2023-12-07T07:59:54;2.90;99.90
7399;DHT22;3740;50.700;7.184;2023-12-07T08:02:20;3.00;99.90
7399;DHT22;3740;50.700;7.184;2023-12-07T08:04:46;2.90;99.90
7399;DHT22;3740;50.700;7.184;2023-12-07T08:07:12;3.00;99.90
7399;DHT22;3740;50.700;7.184;2023-12-07T08:09:38;2.90;99.90
7399;DHT22;3740;50.700;7.184;2023-12-07T08:12:03;2.90;99.90
7399;DHT22;3740;50.700;7.184;2023-12-07T08:14:29;2.80;99.90
7399;DHT22;3740;50.700;7.184;2023-12-07T08:16:55;2.70;99.90
7399;DHT22;3740;50.700;7.184;2023-12-07T08:19:21;2.80;99.90
7399;DHT22;3740;50.700;7.184;2023-12-07T08:21:46;2.80;99.90
7399;DHT22;3740;50.700;7.184;2023-12-07T08:24:12;2.80;99.90
7399;DHT22;3740;50.700;7.184;2023-12-07T08:26:38;2.80;99.90
7399;DHT22;3740;50.700;7.184;2023-12-07T08:29:04;2.80;99.90
7399;DHT22;3740;50.700;7.184;2023-12-07T08:31:30;2.80;99.90
7399;DHT22;3740;50.700;7.184;2023-12-07T08:33:56;2.80;99.90
7399;DHT22;3740;50.700;7.184;2023-12-07T08:36:21;2.80;99.90
7399;DHT22;3740;50.700;7.184;2023-12-07T08:38:47;2.80;99.90
7399;DHT22;3740;50.700;7.184;2023-12-07T08:41:13;2.90;99.90
7399;DHT22;3740;50.700;7.184;2023-12-07T08:43:39;3.00;99.90
7399;DHT22;3740;50.700;7.184;2023-12-07T08:46:04;2.90;99.90
7399;DHT22;3740;50.700;7.184;2023-12-07T08:48:32;3.00;99.90
7399;DHT22;3740;50.700;7.184;2023-12-07T08:50:58;2.90;99.90
7399;DHT22;3740;50.700;7.184;2023-12-07T08:53:23;2.90;99.90
7399;DHT22;3740;50.700;7.184;2023-12-07T08:55:49;3.00;99.90
7399;DHT22;3740;50.700;7.184;2023-12-07T08:58:15;2.90;99.90
7399;DHT22;3740;50.700;7.184;2023-12-07T09:00:40;2.90;99.90
7399;DHT22;3740;50.700;7.184;2023-12-07T09:03:06;3.00;99.90
7399;DHT22;3740;50.700;7.184;2023-12-07T09:05:31;3.00;99.90
7399;DHT22;3740;50.700;7.184;2023-12-07T09:07:57;2.90;99.90
7399;DHT22;3740;50.700;7.184;2023-12-07T09:10:22;3.00;99.90
7399;DHT22;3740;50.700;7.184;2023-12-07T09:12:48;3.00;99.90
7399;DHT22;3740;50.700;7.184;2023-12-07T09:15:14;3.00;99.90
7399;DHT22;3740;50.700;7.184;2023-12-07T09:17:40;3.10;99.90
7399;DHT22;3740;50.700;7.184;2023-12-07T09:20:10;3.10;99.90
7399;DHT22;3740;50.700;7.184;2023-12-07T09:22:42;3.20;99.90
7399;DHT22;3740;50.700;7.184;2023-12-07T09:25:08;3.20;99.90
7399;DHT22;3740;50.700;7.184;2023-12-07T09:27:34;3.30;99.90
7399;DHT22;3740;50.700;7.184;2023-12-07T09:30:01;3.30;99.90
7399;DHT22;3740;50.700;7.184;2023-12-07T09:32:26;3.20;99.90
7399;DHT22;3740;50.700;7.184;2023-12-07T09:34:53;3.30;99.90
7399;DHT22;3740;50.700;7.184;2023-12-07T09:37:19;3.30;99.90
7399;DHT22;3740;50.700;7.184;2023-12-07T09:39:44;3.40;99.90
7399;DHT22;3740;50.700;7.184;2023-12-07T09:42:10;3.60;99.90
7399;DHT22;3740;50.700;7.184;2023-12-07T09:44:35;3.70;99.90
7399;DHT22;3740;50.700;7.184;2023-12-07T09:47:01;3.90;99.90
7399;DHT22;3740;50.700;7.184;2023-12-07T09:49:27;4.10;99.90
7399;DHT22;3740;50.700;7.184;2023-12-07T09:51:54;4.30;99.90
7399;DHT22;3740;50.700;7.184;2023-12-07T09:54:22;4.50;99.90
7399;DHT22;3740;50.700;7.184;2023-12-07T09:56:47;4.70;99.90
7399;DHT22;3740;50.700;7.184;2023-12-07T09:59:13;4.90;99.90
7399;DHT22;3740;50.700;7.184;2023-12-07T10:01:38;5.10;99.90
7399;DHT22;3740;50.700;7.184;2023-12-07T10:04:21;5.30;99.90
7399;DHT22;3740;50.700;7.184;2023-12-07T10:06:52;5.40;99.90
7399;DHT22;3740;50.700;7.184;2023-12-07T10:09:19;5.50;99.90
7399;DHT22;3740;50.700;7.184;2023-12-07T10:11:45;5.70;99.90
7399;DHT22;3740;50.700;7.184;2023-12-07T10:14:11;5.90;99.90
7399;DHT22;3740;50.700;7.184;2023-12-07T10:16:37;6.20;99.90
7399;DHT22;3740;50.700;7.184;2023-12-07T10:19:15;6.40;99.90
7399;DHT22;3740;50.700;7.184;2023-12-07T10:21:43;6.80;99.90
7399;DHT22;3740;50.700;7.184;2023-12-07T10:24:10;7.20;99.90
7399;DHT22;3740;50.700;7.184;2023-12-07T10:26:36;7.40;99.90
7399;DHT22;3740;50.700;7.184;2023-12-07T10:29:04;7.50;99.90
7399;DHT22;3740;50.700;7.184;2023-12-07T10:31:31;7.70;99.90
7399;DHT22;3740;50.700;7.184;2023-12-07T10:33:58;8.30;99.90
7399;DHT22;3740;50.700;7.184;2023-12-07T10:36:24;9.10;99.90
7399;DHT22;3740;50.700;7.184;2023-12-07T10:38:49;9.60;99.90
7399;DHT22;3740;50.700;7.184;2023-12-07T10:41:25;10.00;99.90
7399;DHT22;3740;50.700;7.184;2023-12-07T10:43:57;10.10;99.90
7399;DHT22;3740;50.700;7.184;2023-12-07T10:46:24;10.40;99.90
7399;DHT22;3740;50.700;7.184;2023-12-07T10:48:55;10.50;99.90
7399;DHT22;3740;50.700;7.184;2023-12-07T10:51:31;10.90;99.90
7399;DHT22;3740;50.700;7.184;2023-12-07T10:54:02;11.40;99.90
7399;DHT22;3740;50.700;7.184;2023-12-07T10:56:54;11.80;99.90
7399;DHT22;3740;50.700;7.184;2023-12-07T10:59:19;11.80;99.90
7399;DHT22;3740;50.700;7.184;2023-12-07T11:01:47;12.30;99.90
7399;DHT22;3740;50.700;7.184;2023-12-07T11:04:13;12.80;99.90
7399;DHT22;3740;50.700;7.184;2023-12-07T11:06:46;13.00;99.90
7399;DHT22;3740;50.700;7.184;2023-12-07T11:09:21;13.00;99.90
7399;DHT22;3740;50.700;7.184;2023-12-07T11:11:52;13.10;99.90
7399;DHT22;3740;50.700;7.184;2023-12-07T11:14:21;12.90;99.90
7399;DHT22;3740;50.700;7.184;2023-12-07T11:16:47;12.30;99.90
7399;DHT22;3740;50.700;7.184;2023-12-07T11:22:04;12.20;99.90
7399;DHT22;3740;50.700;7.184;2023-12-07T11:24:29;12.00;99.90
7399;DHT22;3740;50.700;7.184;2023-12-07T11:26:56;11.60;99.90
7399;DHT22;3740;50.700;7.184;2023-12-07T11:29:25;11.10;99.90
7399;DHT22;3740;50.700;7.184;2023-12-07T11:31:51;10.70;99.90
7399;DHT22;3740;50.700;7.184;2023-12-07T11:34:36;10.10;99.90
7399;DHT22;3740;50.700;7.184;2023-12-07T11:37:02;9.80;99.90
7399;DHT22;3740;50.700;7.184;2023-12-07T11:39:29;9.70;99.90
7399;DHT22;3740;50.700;7.184;2023-12-07T11:41:54;9.70;99.90
7399;DHT22;3740;50.700;7.184;2023-12-07T11:44:33;9.80;99.90
7399;DHT22;3740;50.700;7.184;2023-12-07T11:47:00;9.70;99.90
7399;DHT22;3740;50.700;7.184;2023-12-07T11:49:26;9.70;99.90
7399;DHT22;3740;50.700;7.184;2023-12-07T11:51:52;9.50;99.90
7399;DHT22;3740;50.700;7.184;2023-12-07T11:54:18;9.30;99.90
7399;DHT22;3740;50.700;7.184;2023-12-07T11:56:43;9.20;99.90
7399;DHT22;3740;50.700;7.184;2023-12-07T11:59:09;8.80;99.90
7399;DHT22;3740;50.700;7.184;2023-12-07T12:01:35;8.70;99.90
7399;DHT22;3740;50.700;7.184;2023-12-07T12:04:00;8.70;99.90
7399;DHT22;3740;50.700;7.184;2023-12-07T12:06:26;8.70;99.90
7399;DHT22;3740;50.700;7.184;2023-12-07T12:08:51;8.70;99.90
7399;DHT22;3740;50.700;7.184;2023-12-07T12:11:18;8.70;99.90
7399;DHT22;3740;50.700;7.184;2023-12-07T12:13:45;8.60;99.90
7399;DHT22;3740;50.700;7.184;2023-12-07T12:16:11;8.30;99.90
7399;DHT22;3740;50.700;7.184;2023-12-07T12:18:37;8.10;99.90
7399;DHT22;3740;50.700;7.184;2023-12-07T12:21:03;8.00;99.90
7399;DHT22;3740;50.700;7.184;2023-12-07T12:23:29;7.90;99.90
7399;DHT22;3740;50.700;7.184;2023-12-07T12:25:55;7.90;99.90
7399;DHT22;3740;50.700;7.184;2023-12-07T12:28:20;7.90;99.90
7399;DHT22;3740;50.700;7.184;2023-12-07T12:30:48;7.70;99.90
7399;DHT22;3740;50.700;7.184;2023-12-07T12:33:14;7.70;99.90
7399;DHT22;3740;50.700;7.184;2023-12-07T12:35:40;7.60;99.90
7399;DHT22;3740;50.700;7.184;2023-12-07T12:38:12;7.60;99.90
7399;DHT22;3740;50.700;7.184;2023-12-07T12:40:38;7.50;99.90
7399;DHT22;3740;50.700;7.184;2023-12-07T12:43:04;7.40;99.90
7399;DHT22;3740;50.700;7.184;2023-12-07T12:45:30;7.30;99.90
7399;DHT22;3740;50.700;7.184;2023-12-07T12:47:57;7.30;99.90
7399;DHT22;3740;50.700;7.184;2023-12-07T12:50:52;7.20;99.90
7399;DHT22;3740;50.700;7.184;2023-12-07T12:53:18;7.10;99.90
7399;DHT22;3740;50.700;7.184;2023-12-07T12:55:43;7.20;99.90
7399;DHT22;3740;50.700;7.184;2023-12-07T12:58:10;7.20;99.90
7399;DHT22;3740;50.700;7.184;2023-12-07T13:00:39;7.20;99.90
7399;DHT22;3740;50.700;7.184;2023-12-07T13:03:05;7.20;99.90
7399;DHT22;3740;50.700;7.184;2023-12-07T13:05:31;7.20;99.90
7399;DHT22;3740;50.700;7.184;2023-12-07T13:07:58;7.20;99.90
7399;DHT22;3740;50.700;7.184;2023-12-07T13:10:25;7.20;99.90
7399;DHT22;3740;50.700;7.184;2023-12-07T13:12:51;7.20;99.90
7399;DHT22;3740;50.700;7.184;2023-12-07T13:15:17;7.20;99.90
7399;DHT22;3740;50.700;7.184;2023-12-07T13:17:42;7.20;99.90
7399;DHT22;3740;50.700;7.184;2023-12-07T13:20:08;7.20;99.90
7399;DHT22;3740;50.700;7.184;2023-12-07T13:22:40;7.30;99.90
7399;DHT22;3740;50.700;7.184;2023-12-07T13:25:09;7.20;99.90
7399;DHT22;3740;50.700;7.184;2023-12-07T13:27:35;7.20;99.90
7399;DHT22;3740;50.700;7.184;2023-12-07T13:30:02;7.20;99.90
7399;DHT22;3740;50.700;7.184;2023-12-07T13:32:31;7.20;99.90
7399;DHT22;3740;50.700;7.184;2023-12-07T13:34:57;7.40;99.90
7399;DHT22;3740;50.700;7.184;2023-12-07T13:37:23;7.40;99.90
7399;DHT22;3740;50.700;7.184;2023-12-07T13:39:48;7.50;99.90
7399;DHT22;3740;50.700;7.184;2023-12-07T13:42:21;7.50;99.90
7399;DHT22;3740;50.700;7.184;2023-12-07T13:44:46;7.70;99.90
7399;DHT22;3740;50.700;7.184;2023-12-07T13:47:16;7.80;99.90
7399;DHT22;3740;50.700;7.184;2023-12-07T13:49:42;7.90;99.90
7399;DHT22;3740;50.700;7.184;2023-12-07T13:52:08;7.90;99.90
7399;DHT22;3740;50.700;7.184;2023-12-07T13:54:35;7.90;99.90
7399;DHT22;3740;50.700;7.184;2023-12-07T13:57:01;7.90;99.90
7399;DHT22;3740;50.700;7.184;2023-12-07T13:59:28;7.90;99.90
7399;DHT22;3740;50.700;7.184;2023-12-07T14:01:54;7.70;99.90
7399;DHT22;3740;50.700;7.184;2023-12-07T14:04:20;7.60;99.90
7399;DHT22;3740;50.700;7.184;2023-12-07T14:06:46;7.50;99.90
7399;DHT22;3740;50.700;7.184;2023-12-07T14:09:12;7.40;99.90
7399;DHT22;3740;50.700;7.184;2023-12-07T14:11:37;7.30;99.90
7399;DHT22;3740;50.700;7.184;2023-12-07T14:14:04;7.20;99.90
7399;DHT22;3740;50.700;7.184;2023-12-07T14:16:30;7.10;99.90
7399;DHT22;3740;50.700;7.184;2023-12-07T14:18:55;7.00;99.90
7399;DHT22;3740;50.700;7.184;2023-12-07T14:21:21;7.00;99.90
7399;DHT22;3740;50.700;7.184;2023-12-07T14:23:47;6.90;99.90
7399;DHT22;3740;50.700;7.184;2023-12-07T14:26:12;6.80;99.90
7399;DHT22;3740;50.700;7.184;2023-12-07T14:28:38;6.80;99.90
7399;DHT22;3740;50.700;7.184;2023-12-07T14:31:04;6.70;99.90
7399;DHT22;3740;50.700;7.184;2023-12-07T14:33:29;6.70;99.90
7399;DHT22;3740;50.700;7.184;2023-12-07T14:35:55;6.60;99.90
7399;DHT22;3740;50.700;7.184;2023-12-07T14:38:21;6.40;99.90
7399;DHT22;3740;50.700;7.184;2023-12-07T14:40:46;6.40;99.90
7399;DHT22;3740;50.700;7.184;2023-12-07T14:43:12;6.30;99.90
7399;DHT22;3740;50.700;7.184;2023-12-07T14:45:37;6.30;99.90
7399;DHT22;3740;50.700;7.184;2023-12-07T14:48:03;6.20;99.90
7399;DHT22;3740;50.700;7.184;2023-12-07T14:50:29;6.20;99.90
7399;DHT22;3740;50.700;7.184;2023-12-07T14:52:55;6.10;99.90
7399;DHT22;3740;50.700;7.184;2023-12-07T14:55:20;6.10;99.90
7399;DHT22;3740;50.700;7.184;2023-12-07T14:57:46;6.00;99.90
7399;DHT22;3740;50.700;7.184;2023-12-07T15:00:13;5.90;99.90
7399;DHT22;3740;50.700;7.184;2023-12-07T15:02:39;5.90;99.90
7399;DHT22;3740;50.700;7.184;2023-12-07T15:05:05;5.90;99.90
7399;DHT22;3740;50.700;7.184;2023-12-07T15:07:30;5.80;99.90
7399;DHT22;3740;50.700;7.184;2023-12-07T15:09:56;5.80;99.90
7399;DHT22;3740;50.700;7.184;2023-12-07T15:12:23;5.70;99.90
7399;DHT22;3740;50.700;7.184;2023-12-07T15:14:50;5.60;99.90
7399;DHT22;3740;50.700;7.184;2023-12-07T15:17:16;5.50;99.90
7399;DHT22;3740;50.700;7.184;2023-12-07T15:19:41;5.50;99.90
7399;DHT22;3740;50.700;7.184;2023-12-07T15:22:07;5.40;99.90
7399;DHT22;3740;50.700;7.184;2023-12-07T15:24:33;5.30;99.90
7399;DHT22;3740;50.700;7.184;2023-12-07T15:26:58;5.20;99.90
7399;DHT22;3740;50.700;7.184;2023-12-07T15:29:24;5.10;99.90
7399;DHT22;3740;50.700;7.184;2023-12-07T15:31:49;5.00;99.90
7399;DHT22;3740;50.700;7.184;2023-12-07T15:34:15;5.00;99.90
7399;DHT22;3740;50.700;7.184;2023-12-07T15:36:40;4.90;99.90
7399;DHT22;3740;50.700;7.184;2023-12-07T15:39:06;5.00;99.90
7399;DHT22;3740;50.700;7.184;2023-12-07T15:41:32;4.90;99.90
7399;DHT22;3740;50.700;7.184;2023-12-07T15:43:58;4.90;99.90
7399;DHT22;3740;50.700;7.184;2023-12-07T15:46:23;5.00;99.90
7399;DHT22;3740;50.700;7.184;2023-12-07T15:48:49;5.00;99.90
7399;DHT22;3740;50.700;7.184;2023-12-07T15:51:14;5.10;99.90
7399;DHT22;3740;50.700;7.184;2023-12-07T15:53:40;5.00;99.90
7399;DHT22;3740;50.700;7.184;2023-12-07T15:56:07;5.00;99.90
7399;DHT22;3740;50.700;7.184;2023-12-07T15:58:32;5.00;99.90
7399;DHT22;3740;50.700;7.184;2023-12-07T16:00:58;4.90;99.90
7399;DHT22;3740;50.700;7.184;2023-12-07T16:03:23;4.90;99.90
7399;DHT22;3740;50.700;7.184;2023-12-07T16:05:51;4.70;99.90
7399;DHT22;3740;50.700;7.184;2023-12-07T16:08:16;4.70;99.90
7399;DHT22;3740;50.700;7.184;2023-12-07T16:10:42;4.70;99.90
7399;DHT22;3740;50.700;7.184;2023-12-07T16:13:07;4.70;99.90
7399;DHT22;3740;50.700;7.184;2023-12-07T16:15:33;4.60;99.90